Time;durP1;ratioP1;P1;durP2;ratioP2;P2;SDS_P1;SDS_P2;PMS_P1;PMS_P2;Temp;Humidity;BMP_temperature;BMP_pressure;BME280_temperature;BME280_humidity;BME280_pressure;Samples;Min_cycle;Max_cycle;Signal;HPM_P1;HPM_P2
2022/06/24 00:01:20;;;;;;;6.03;5.37;;;22.90;99.90;;;;;;5055827;28;20672;-65
2022/06/24 00:03:47;;;;;;;17.53;9.30;;;22.90;99.90;;;;;;5055506;28;20673;-65
2022/06/24 00:06:16;;;;;;;7.93;5.47;;;22.90;99.90;;;;;;5054574;28;20745;-66
2022/06/24 00:08:54;;;;;;;9.50;6.23;;;22.90;99.90;;;;;;5054731;28;20291;-66
2022/06/24 00:11:29;;;;;;;6.57;5.43;;;22.90;99.90;;;;;;5054176;28;20214;-66
2022/06/24 00:14:08;;;;;;;8.73;5.70;;;22.90;99.90;;;;;;5054508;28;20263;-65
2022/06/24 00:16:53;;;;;;;8.57;5.70;;;22.90;99.90;;;;;;5054118;28;20275;-66
2022/06/24 00:19:19;;;;;;;8.77;5.90;;;22.80;99.90;;;;;;5054456;28;20212;-67
2022/06/24 00:21:58;;;;;;;9.73;6.13;;;22.80;99.90;;;;;;5053652;28;20206;-65
2022/06/24 00:24:25;;;;;;;7.83;5.77;;;22.80;99.90;;;;;;5054003;28;20914;-66
2022/06/24 00:26:53;;;;;;;10.07;5.83;;;22.80;99.90;;;;;;5053662;28;20629;-65
2022/06/24 00:29:20;;;;;;;6.03;5.10;;;22.80;99.90;;;;;;5053506;28;20221;-65
2022/06/24 00:32:03;;;;;;;6.93;5.40;;;22.80;99.90;;;;;;5053951;28;20210;-66
2022/06/24 00:34:30;;;;;;;9.00;6.50;;;22.60;99.90;;;;;;5053616;28;20239;-64
2022/06/24 00:36:57;;;;;;;13.50;7.17;;;22.50;99.90;;;;;;5053773;28;20773;-65
2022/06/24 00:39:33;;;;;;;8.27;6.43;;;22.50;99.90;;;;;;5054508;28;20197;-65
2022/06/24 00:42:01;;;;;;;6.77;5.53;;;22.50;99.90;;;;;;5055380;28;20209;-65
2022/06/24 00:44:43;;;;;;;10.90;5.70;;;22.40;99.90;;;;;;5055299;28;20237;-64
2022/06/24 00:47:12;;;;;;;6.93;5.17;;;22.30;99.90;;;;;;5056147;28;20233;-66
2022/06/24 00:49:39;;;;;;;8.03;5.40;;;22.30;99.90;;;;;;5054637;28;20229;-64
2022/06/24 00:52:08;;;;;;;6.03;4.80;;;22.40;99.90;;;;;;5055862;28;20209;-65
2022/06/24 00:54:35;;;;;;;7.67;4.63;;;22.50;99.90;;;;;;5057191;28;20209;-65
2022/06/24 00:57:04;;;;;;;7.40;4.70;;;22.70;99.90;;;;;;5057267;28;20735;-66
2022/06/24 00:59:35;;;;;;;7.90;4.60;;;22.90;99.90;;;;;;5057686;28;20201;-64
2022/06/24 01:02:05;;;;;;;7.63;5.77;;;23.00;99.90;;;;;;5059427;28;20216;-65
2022/06/24 01:04:34;;;;;;;7.67;5.03;;;23.00;99.90;;;;;;5058500;28;20300;-66
2022/06/24 01:07:01;;;;;;;11.63;5.40;;;22.90;99.90;;;;;;5057786;28;20240;-65
2022/06/24 01:09:28;;;;;;;10.00;5.13;;;22.80;99.90;;;;;;5057355;28;20598;-64
2022/06/24 01:11:55;;;;;;;9.67;5.03;;;22.80;99.90;;;;;;5057671;28;20206;-65
2022/06/24 01:14:23;;;;;;;6.77;5.03;;;22.70;99.90;;;;;;5056234;28;20206;-65
2022/06/24 01:16:50;;;;;;;8.27;4.57;;;22.60;99.90;;;;;;5057422;28;20280;-64
2022/06/24 01:19:17;;;;;;;7.27;4.60;;;22.40;1.00;;;;;;5057387;28;20255;-65
2022/06/24 01:21:46;;;;;;;12.50;5.33;;;22.40;1.00;;;;;;5057900;28;20210;-63
2022/06/24 01:24:16;;;;;;;13.90;5.10;;;22.10;99.90;;;;;;5057391;28;20205;-63
2022/06/24 01:26:44;;;;;;;9.27;5.30;;;22.00;55.00;;;;;;5055735;28;20261;-64
2022/06/24 01:29:11;;;;;;;9.30;5.30;;;21.90;1.00;;;;;;5056144;28;20277;-64
2022/06/24 01:31:40;;;;;;;10.03;5.83;;;21.80;99.90;;;;;;5056862;28;20223;-64
2022/06/24 01:34:07;;;;;;;8.83;5.50;;;21.70;1.00;;;;;;5057522;28;20221;-64
2022/06/24 01:36:34;;;;;;;12.33;5.20;;;21.60;1.00;;;;;;5056654;28;20286;-63
2022/06/24 01:39:02;;;;;;;10.10;6.20;;;21.50;1.00;;;;;;5056217;28;20209;-65
2022/06/24 01:41:29;;;;;;;8.63;5.93;;;21.40;69.00;;;;;;5054959;28;20206;-65
2022/06/24 01:43:56;;;;;;;14.73;6.40;;;21.40;99.90;;;;;;5055651;28;20205;-64
2022/06/24 01:46:23;;;;;;;10.47;5.90;;;21.30;99.90;;;;;;5054934;28;20225;-65
2022/06/24 01:48:50;;;;;;;10.93;5.93;;;21.20;99.90;;;;;;5054874;28;20202;-63
2022/06/24 01:51:20;;;;;;;10.07;6.53;;;21.10;99.90;;;;;;5054750;28;20236;-65
2022/06/24 01:53:47;;;;;;;9.73;6.43;;;21.00;99.90;;;;;;5054600;28;20237;-64
2022/06/24 01:56:15;;;;;;;14.23;6.70;;;20.90;99.90;;;;;;5053589;28;20233;-65
2022/06/24 01:58:42;;;;;;;16.80;7.63;;;20.90;99.90;;;;;;5053038;28;20216;-64
2022/06/24 02:01:08;;;;;;;10.60;6.60;;;20.80;99.90;;;;;;5053161;28;20255;-65
2022/06/24 02:03:35;;;;;;;9.90;7.00;;;20.80;99.90;;;;;;5052679;28;20252;-64
2022/06/24 02:06:04;;;;;;;13.83;7.70;;;20.80;99.90;;;;;;5052344;28;20241;-63
2022/06/24 02:08:31;;;;;;;11.23;6.70;;;20.70;99.90;;;;;;5052113;28;20296;-65
2022/06/24 02:13:44;;;;;;;11.80;7.23;;;20.70;99.90;;;;;;5054498;28;20197;-63
2022/06/24 02:16:12;;;;;;;13.37;7.40;;;20.70;99.90;;;;;;5054986;28;20283;-65
2022/06/24 02:18:39;;;;;;;11.13;7.20;;;20.70;99.90;;;;;;5055804;28;20221;-63
2022/06/24 02:21:06;;;;;;;11.73;6.97;;;20.60;99.90;;;;;;5055954;28;20259;-63
2022/06/24 02:23:33;;;;;;;14.47;7.03;;;20.60;99.90;;;;;;5056503;28;20614;-64
2022/06/24 02:26:00;;;;;;;15.03;8.77;;;20.70;99.90;;;;;;5055791;28;20229;-64
2022/06/24 02:28:27;;;;;;;12.00;8.50;;;20.60;99.90;;;;;;5055855;28;20209;-64
2022/06/24 02:30:57;;;;;;;13.10;7.80;;;20.60;99.90;;;;;;5055456;28;20221;-64
2022/06/24 02:33:23;;;;;;;10.63;7.40;;;20.60;99.90;;;;;;5053328;28;20627;-64
2022/06/24 02:35:50;;;;;;;13.77;7.07;;;20.60;99.90;;;;;;5054255;28;20279;-64
2022/06/24 02:38:17;;;;;;;10.83;6.50;;;20.50;99.90;;;;;;5054677;28;20213;-63
2022/06/24 02:40:47;;;;;;;12.90;6.53;;;20.60;99.90;;;;;;5055944;28;20623;-64
2022/06/24 02:43:16;;;;;;;11.83;7.60;;;20.60;99.90;;;;;;5055586;28;20577;-64
2022/06/24 02:45:43;;;;;;;12.50;7.90;;;20.60;99.90;;;;;;5054502;28;20233;-64
2022/06/24 02:48:11;;;;;;;13.57;8.20;;;20.60;99.90;;;;;;5054479;28;20213;-64
2022/06/24 02:50:39;;;;;;;17.40;7.60;;;20.50;99.90;;;;;;5054344;28;20231;-64
2022/06/24 02:53:06;;;;;;;14.37;7.97;;;20.50;99.90;;;;;;5058648;28;20263;-63
2022/06/24 02:55:33;;;;;;;12.00;8.00;;;20.50;99.90;;;;;;5059350;28;20205;-64
2022/06/24 02:58:00;;;;;;;13.37;7.83;;;20.50;99.90;;;;;;5058859;28;20671;-64
2022/06/24 03:00:26;;;;;;;10.43;7.53;;;20.60;99.90;;;;;;5058960;28;20640;-63
2022/06/24 03:02:53;;;;;;;15.13;8.40;;;20.60;99.90;;;;;;5059306;28;20220;-65
2022/06/24 03:05:21;;;;;;;14.73;8.77;;;20.60;99.90;;;;;;5058789;28;20259;-63
2022/06/24 03:07:48;;;;;;;13.63;9.43;;;20.60;99.90;;;;;;5058645;28;20292;-64
2022/06/24 03:10:16;;;;;;;15.60;10.53;;;20.60;99.90;;;;;;5058857;28;20226;-64
2022/06/24 03:12:43;;;;;;;14.10;9.57;;;20.70;99.90;;;;;;5058874;28;20233;-64
2022/06/24 03:15:10;;;;;;;17.00;10.17;;;20.70;99.90;;;;;;5058094;28;20212;-65
2022/06/24 03:17:37;;;;;;;16.70;9.97;;;20.50;99.90;;;;;;5056929;28;20332;-65
2022/06/24 03:20:05;;;;;;;13.30;9.80;;;20.60;99.90;;;;;;5057651;28;20260;-63
2022/06/24 03:22:33;;;;;;;15.63;9.93;;;20.60;99.90;;;;;;5057370;28;20708;-62
2022/06/24 03:25:00;;;;;;;13.33;10.37;;;20.60;99.90;;;;;;5056384;28;20205;-63
2022/06/24 03:27:27;;;;;;;14.23;9.97;;;20.60;99.90;;;;;;5056586;28;20279;-63
2022/06/24 03:29:53;;;;;;;17.33;10.07;;;20.60;99.90;;;;;;5057528;28;20236;-65
2022/06/24 03:32:20;;;;;;;13.73;9.90;;;20.60;99.90;;;;;;5057888;28;20232;-64
2022/06/24 03:34:47;;;;;;;17.43;10.83;;;20.60;99.90;;;;;;5057298;28;20576;-65
2022/06/24 03:37:14;;;;;;;15.57;10.80;;;20.50;99.90;;;;;;5056137;28;20230;-65
2022/06/24 03:39:42;;;;;;;16.77;11.97;;;20.50;99.90;;;;;;5056841;28;20202;-65
2022/06/24 03:42:09;;;;;;;18.87;13.17;;;20.40;99.90;;;;;;5056200;28;20259;-65
2022/06/24 03:44:36;;;;;;;15.90;12.20;;;20.30;99.90;;;;;;5056143;28;20256;-65
2022/06/24 03:47:03;;;;;;;15.43;12.47;;;20.20;99.90;;;;;;5057348;28;20303;-64
2022/06/24 03:49:30;;;;;;;14.87;12.10;;;20.20;99.90;;;;;;5057579;28;20210;-65
2022/06/24 03:51:57;;;;;;;15.17;11.77;;;20.20;99.90;;;;;;5057783;28;20209;-64
2022/06/24 03:54:23;;;;;;;14.17;11.97;;;20.20;99.90;;;;;;5057325;28;20210;-64
2022/06/24 03:56:52;;;;;;;14.43;11.17;;;20.20;99.90;;;;;;5056010;28;20225;-65
2022/06/24 03:59:18;;;;;;;17.07;11.53;;;20.10;99.90;;;;;;5056026;28;20263;-65
2022/06/24 04:01:45;;;;;;;15.73;11.57;;;20.10;99.90;;;;;;5056113;28;20249;-65
2022/06/24 04:04:12;;;;;;;17.43;12.03;;;20.10;99.90;;;;;;5054553;28;20259;-64
2022/06/24 04:06:38;;;;;;;16.83;12.67;;;20.00;99.90;;;;;;5055855;28;20225;-65
2022/06/24 04:09:05;;;;;;;14.13;11.37;;;20.00;99.90;;;;;;5055444;28;20252;-64
2022/06/24 04:11:32;;;;;;;19.63;11.67;;;20.10;99.90;;;;;;5055190;28;20225;-65
2022/06/24 04:14:02;;;;;;;15.03;11.47;;;20.00;99.90;;;;;;5054158;28;20243;-65
2022/06/24 04:16:28;;;;;;;13.50;11.33;;;19.90;99.90;;;;;;5053354;28;20229;-65
2022/06/24 04:18:56;;;;;;;15.70;10.43;;;19.90;99.90;;;;;;5053913;28;20225;-63
2022/06/24 04:21:22;;;;;;;11.80;10.53;;;19.90;99.90;;;;;;5053993;28;20279;-65
2022/06/24 04:23:49;;;;;;;13.80;10.60;;;19.90;99.90;;;;;;5053861;28;20210;-64
2022/06/24 04:26:17;;;;;;;13.13;9.93;;;20.00;99.90;;;;;;5053500;28;20222;-64
2022/06/24 04:28:44;;;;;;;13.07;9.17;;;19.90;99.90;;;;;;5054023;28;20201;-64
2022/06/24 04:31:12;;;;;;;11.40;9.20;;;20.00;99.90;;;;;;5053958;28;20226;-65
2022/06/24 04:33:39;;;;;;;13.90;9.77;;;20.10;99.90;;;;;;5053951;28;20231;-64
2022/06/24 04:36:11;;;;;;;11.07;9.70;;;20.10;99.90;;;;;;5051521;28;20720;-63
2022/06/24 04:38:37;;;;;;;12.63;11.33;;;20.00;99.90;;;;;;5052772;28;20214;-63
2022/06/24 04:41:11;;;;;;;14.63;10.87;;;20.00;99.90;;;;;;5053672;28;20209;-63
2022/06/24 04:43:37;;;;;;;13.37;10.67;;;19.80;99.90;;;;;;5053313;28;20313;-63
2022/06/24 04:46:04;;;;;;;15.10;10.80;;;19.70;99.90;;;;;;5053434;28;20225;-64
2022/06/24 04:48:34;;;;;;;16.07;12.30;;;19.70;99.90;;;;;;5053529;28;20279;-63
2022/06/24 04:51:02;;;;;;;15.10;12.93;;;19.70;99.90;;;;;;5052899;28;20229;-63
2022/06/24 04:53:29;;;;;;;15.83;12.90;;;19.60;99.90;;;;;;5053566;28;20308;-63
2022/06/24 04:55:55;;;;;;;18.07;14.40;;;19.70;99.90;;;;;;5052582;28;20275;-63
2022/06/24 04:58:22;;;;;;;17.80;15.03;;;19.70;99.90;;;;;;5052992;28;20239;-63
2022/06/24 05:00:49;;;;;;;17.77;14.53;;;19.70;99.90;;;;;;5052916;28;20205;-63
2022/06/24 05:03:16;;;;;;;18.53;14.77;;;19.70;99.90;;;;;;5052966;28;20209;-64
2022/06/24 05:05:44;;;;;;;18.63;14.47;;;19.70;99.90;;;;;;5052895;28;20295;-63
2022/06/24 05:08:10;;;;;;;18.10;15.87;;;19.70;99.90;;;;;;5052661;28;20205;-63
2022/06/24 05:10:37;;;;;;;15.10;13.20;;;19.80;99.90;;;;;;5053020;28;20229;-63
2022/06/24 05:13:04;;;;;;;20.00;15.03;;;19.80;99.90;;;;;;5052629;28;20251;-62
2022/06/24 05:15:30;;;;;;;17.30;14.13;;;19.80;99.90;;;;;;5052972;28;20210;-62
2022/06/24 05:17:57;;;;;;;18.37;14.00;;;19.80;99.90;;;;;;5051890;28;20225;-62
2022/06/24 05:20:24;;;;;;;18.67;14.67;;;19.90;99.90;;;;;;5053000;28;20258;-62
2022/06/24 05:22:52;;;;;;;17.23;14.20;;;19.90;99.90;;;;;;5052840;28;20212;-64
2022/06/24 05:25:18;;;;;;;17.17;13.93;;;19.90;99.90;;;;;;5044843;28;20216;-63
2022/06/24 05:27:45;;;;;;;18.73;14.57;;;19.80;99.90;;;;;;5051611;28;20209;-63
2022/06/24 05:30:12;;;;;;;19.03;14.17;;;19.70;99.90;;;;;;5051659;28;20213;-63
2022/06/24 05:32:39;;;;;;;16.93;12.90;;;19.70;99.90;;;;;;5051958;28;20734;-64
2022/06/24 05:35:06;;;;;;;19.33;13.90;;;19.70;99.90;;;;;;5052016;28;20749;-64
2022/06/24 05:37:33;;;;;;;19.50;14.43;;;19.70;99.90;;;;;;5051305;28;20230;-63
2022/06/24 05:40:02;;;;;;;18.10;14.30;;;19.80;99.90;;;;;;5052153;28;20242;-64
2022/06/24 05:42:28;;;;;;;19.37;14.70;;;19.80;99.90;;;;;;5051607;28;20197;-64
2022/06/24 05:44:55;;;;;;;20.90;15.67;;;19.80;99.90;;;;;;5051901;28;20206;-64
2022/06/24 05:47:22;;;;;;;20.20;15.37;;;19.70;99.90;;;;;;5051126;28;20225;-64
2022/06/24 05:49:48;;;;;;;18.83;15.33;;;19.70;99.90;;;;;;5051712;28;20212;-64
2022/06/24 05:52:15;;;;;;;18.03;15.60;;;19.70;99.90;;;;;;5051907;28;20251;-64
2022/06/24 05:57:27;;;;;;;20.23;14.97;;;19.60;99.90;;;;;;5050992;28;20242;-64
2022/06/24 05:59:54;;;;;;;19.50;16.27;;;19.60;99.90;;;;;;5051533;28;20216;-64
2022/06/24 06:02:22;;;;;;;21.77;15.73;;;19.50;99.90;;;;;;5051900;28;20271;-65
2022/06/24 06:04:49;;;;;;;15.50;13.67;;;19.50;99.90;;;;;;5051433;28;20301;-65
2022/06/24 06:07:16;;;;;;;23.27;16.80;;;19.50;99.90;;;;;;5051146;28;20226;-65
2022/06/24 06:09:43;;;;;;;21.07;16.03;;;19.60;99.90;;;;;;5051613;28;20212;-65
2022/06/24 06:12:10;;;;;;;19.80;14.37;;;19.60;99.90;;;;;;5051002;28;20283;-66
2022/06/24 06:14:41;;;;;;;24.20;16.57;;;19.50;99.90;;;;;;5051634;28;20209;-65
2022/06/24 06:17:08;;;;;;;20.60;15.90;;;19.60;99.90;;;;;;5050702;28;20234;-65
2022/06/24 06:19:34;;;;;;;23.10;16.70;;;19.60;99.90;;;;;;5051146;28;20211;-65
2022/06/24 06:22:02;;;;;;;20.17;16.27;;;19.60;99.90;;;;;;5051478;28;20293;-67
2022/06/24 06:24:32;;;;;;;22.00;15.17;;;19.70;99.90;;;;;;5051023;28;20235;-68
2022/06/24 06:26:58;;;;;;;21.63;16.60;;;19.80;99.90;;;;;;5050202;28;20229;-68
2022/06/24 06:29:25;;;;;;;19.90;14.87;;;19.80;99.90;;;;;;5051511;28;20201;-68
2022/06/24 06:31:53;;;;;;;17.40;14.97;;;19.90;99.90;;;;;;5050989;28;20283;-68
2022/06/24 06:34:21;;;;;;;21.73;13.43;;;20.00;99.90;;;;;;5051200;28;20213;-67
2022/06/24 06:36:47;;;;;;;16.03;11.90;;;20.10;99.90;;;;;;5050141;28;20316;-67
2022/06/24 06:39:14;;;;;;;11.37;8.73;;;20.10;99.90;;;;;;5050909;28;20580;-67
2022/06/24 06:41:41;;;;;;;12.73;8.20;;;20.10;99.90;;;;;;5051014;28;20205;-67
2022/06/24 06:44:08;;;;;;;9.43;6.83;;;20.10;99.90;;;;;;5051123;28;20221;-67
2022/06/24 06:46:35;;;;;;;9.07;5.13;;;20.10;99.90;;;;;;5050148;28;20279;-66
2022/06/24 06:49:03;;;;;;;8.30;5.20;;;20.10;99.90;;;;;;5050663;28;20217;-67
2022/06/24 06:51:29;;;;;;;6.67;4.07;;;20.20;99.90;;;;;;5050957;28;20225;-61
2022/06/24 06:53:56;;;;;;;6.50;4.20;;;20.10;99.90;;;;;;5050733;28;20209;-66
2022/06/24 06:56:23;;;;;;;7.57;3.70;;;20.10;99.90;;;;;;5050090;28;20684;-67
2022/06/24 06:58:49;;;;;;;4.27;3.20;;;20.10;99.90;;;;;;5050949;28;20214;-64
2022/06/24 07:01:16;;;;;;;4.67;3.40;;;20.20;99.90;;;;;;5050308;28;20202;-64
2022/06/24 07:03:43;;;;;;;5.37;3.10;;;20.30;99.90;;;;;;5050909;28;20664;-64
2022/06/24 07:06:11;;;;;;;4.63;3.00;;;20.30;99.90;;;;;;5049808;28;20279;-64
2022/06/24 07:08:37;;;;;;;7.30;2.50;;;20.30;99.90;;;;;;5050891;28;20212;-64
2022/06/24 07:11:04;;;;;;;3.97;2.17;;;20.40;99.90;;;;;;5050719;28;20222;-65
2022/06/24 07:13:31;;;;;;;5.37;2.60;;;20.40;99.90;;;;;;5050625;28;20271;-65
2022/06/24 07:15:58;;;;;;;4.17;2.30;;;20.50;99.90;;;;;;5049803;28;20291;-65
2022/06/24 07:18:25;;;;;;;7.80;2.47;;;20.60;99.90;;;;;;5050365;28;20235;-65
2022/06/24 07:20:51;;;;;;;6.87;2.40;;;20.70;99.90;;;;;;5050578;28;20201;-65
2022/06/24 07:23:19;;;;;;;4.60;2.40;;;20.90;99.90;;;;;;5050519;28;20214;-65
2022/06/24 07:25:46;;;;;;;4.83;2.30;;;21.00;99.90;;;;;;5049455;28;20272;-65
2022/06/24 07:28:13;;;;;;;4.00;1.93;;;21.00;99.90;;;;;;5049969;28;20206;-66
2022/06/24 07:30:40;;;;;;;2.57;2.00;;;21.00;99.90;;;;;;5050222;28;20205;-65
2022/06/24 07:33:06;;;;;;;6.97;2.30;;;21.10;99.90;;;;;;5050748;28;20214;-66
2022/06/24 07:35:33;;;;;;;4.17;2.00;;;21.10;99.90;;;;;;5050152;28;20236;-66
2022/06/24 07:38:00;;;;;;;3.27;2.07;;;21.10;99.90;;;;;;5050385;28;20259;-65
2022/06/24 07:40:29;;;;;;;4.53;2.60;;;21.20;99.90;;;;;;5055011;28;20676;-67
2022/06/24 07:42:55;;;;;;;4.67;2.30;;;21.30;99.90;;;;;;5054119;28;20213;-65
2022/06/24 07:45:22;;;;;;;2.67;2.00;;;21.30;99.90;;;;;;5053818;28;20205;-65
2022/06/24 07:47:49;;;;;;;2.47;1.90;;;21.30;99.90;;;;;;5053714;28;20243;-66
2022/06/24 07:50:15;;;;;;;3.90;2.00;;;21.20;99.90;;;;;;5053542;28;20213;-65
2022/06/24 07:52:42;;;;;;;4.13;2.33;;;21.20;99.90;;;;;;5054170;28;20225;-66
2022/06/24 07:57:55;;;;;;;3.80;2.30;;;21.20;99.90;;;;;;5053615;28;20259;-65
2022/06/24 08:00:22;;;;;;;7.80;1.87;;;21.00;99.90;;;;;;5053278;28;20205;-64
2022/06/24 08:02:48;;;;;;;7.00;2.10;;;21.00;99.90;;;;;;5053543;28;20206;-65
2022/06/24 08:05:15;;;;;;;4.73;1.80;;;21.00;99.90;;;;;;5053462;28;20209;-64
2022/06/24 08:07:44;;;;;;;4.60;2.43;;;21.20;99.90;;;;;;5053100;28;20600;-64
2022/06/24 08:10:11;;;;;;;5.87;2.53;;;21.20;99.90;;;;;;5053725;28;20240;-65
2022/06/24 08:12:38;;;;;;;4.43;1.97;;;21.40;99.90;;;;;;5053225;28;20233;-65
2022/06/24 08:15:07;;;;;;;2.73;2.20;;;21.50;99.90;;;;;;5052757;28;20206;-65
2022/06/24 08:17:34;;;;;;;3.60;2.53;;;21.40;99.90;;;;;;5052823;28;20233;-66
2022/06/24 08:20:01;;;;;;;5.03;2.60;;;21.00;99.90;;;;;;5052549;28;20905;-67
2022/06/24 08:22:27;;;;;;;2.87;2.37;;;20.70;99.90;;;;;;5053754;28;20206;-66
2022/06/24 08:24:54;;;;;;;3.83;2.13;;;20.40;99.90;;;;;;5053064;28;20267;-66
2022/06/24 08:27:20;;;;;;;2.50;1.80;;;20.20;99.90;;;;;;5052764;28;20271;-67
2022/06/24 08:29:47;;;;;;;2.73;1.60;;;19.90;99.90;;;;;;5053030;28;20209;-67
2022/06/24 08:32:15;;;;;;;3.77;1.63;;;19.90;99.90;;;;;;5053134;28;20244;-67
2022/06/24 08:34:42;;;;;;;4.03;2.07;;;19.70;99.90;;;;;;5052963;28;20209;-66
2022/06/24 08:37:08;;;;;;;3.30;1.60;;;19.80;99.90;;;;;;5052331;28;20238;-66
2022/06/24 08:39:35;;;;;;;3.63;1.40;;;19.80;99.90;;;;;;5053159;28;20696;-66
2022/06/24 08:42:04;;;;;;;3.70;1.50;;;19.70;99.90;;;;;;5052767;28;20259;-66
2022/06/24 08:44:30;;;;;;;2.77;1.83;;;19.60;99.90;;;;;;5052869;28;20205;-66
2022/06/24 08:46:58;;;;;;;4.80;1.87;;;19.50;99.90;;;;;;5052454;28;20233;-63
2022/06/24 08:49:27;;;;;;;2.57;1.90;;;19.40;99.90;;;;;;5052488;28;20205;-68
2022/06/24 08:51:56;;;;;;;3.37;2.10;;;19.30;99.90;;;;;;5052490;28;20703;-67
2022/06/24 08:54:29;;;;;;;4.60;1.77;;;19.10;99.90;;;;;;5052510;28;20206;-68
2022/06/24 08:56:56;;;;;;;2.90;1.93;;;19.10;99.90;;;;;;5051960;28;20303;-67
2022/06/24 08:59:23;;;;;;;3.60;2.10;;;19.10;99.90;;;;;;5053115;28;20206;-68
2022/06/24 09:01:50;;;;;;;4.53;2.30;;;19.10;99.90;;;;;;5052702;28;20204;-67
2022/06/24 09:04:16;;;;;;;3.63;2.27;;;19.30;99.90;;;;;;5057371;28;20202;-65
2022/06/24 09:06:44;;;;;;;4.40;3.53;;;19.40;99.90;;;;;;5051543;28;20642;-68
2022/06/24 09:09:13;;;;;;;6.07;3.70;;;19.30;99.90;;;;;;5052305;28;20216;-66
2022/06/24 09:11:41;;;;;;;3.83;3.30;;;19.10;99.90;;;;;;5052417;28;20268;-64
2022/06/24 09:14:08;;;;;;;5.50;4.10;;;19.10;99.90;;;;;;5051869;28;20260;-64
2022/06/24 09:16:37;;;;;;;9.23;6.00;;;19.20;99.90;;;;;;5051765;28;20236;-64
2022/06/24 09:19:06;;;;;;;9.00;6.23;;;19.20;99.90;;;;;;5051976;28;20217;-67
2022/06/24 09:21:39;;;;;;;10.97;7.40;;;19.30;99.90;;;;;;5054260;28;20212;-65
2022/06/24 09:24:08;;;;;;;9.43;6.73;;;19.20;99.90;;;;;;5057224;28;20248;-67
2022/06/24 09:26:36;;;;;;;12.07;7.33;;;19.10;99.90;;;;;;5051707;28;20735;-65
2022/06/24 09:29:05;;;;;;;14.87;7.83;;;19.10;99.90;;;;;;5053776;28;20212;-67
2022/06/24 09:31:32;;;;;;;14.73;8.60;;;19.10;99.90;;;;;;5051658;28;20210;-61
2022/06/24 09:34:08;;;;;;;13.80;9.03;;;19.10;99.90;;;;;;5052106;28;20739;-61
2022/06/24 09:36:35;;;;;;;13.17;9.07;;;19.10;99.90;;;;;;5051455;28;20307;-61
2022/06/24 09:39:04;;;;;;;14.67;9.77;;;18.90;99.90;;;;;;5053233;28;20216;-66
2022/06/24 09:41:42;;;;;;;16.57;11.03;;;18.80;99.90;;;;;;5052055;28;20210;-65
2022/06/24 09:44:10;;;;;;;17.70;11.30;;;18.80;99.90;;;;;;5051482;28;20676;-64
2022/06/24 09:46:37;;;;;;;32.20;21.47;;;18.80;99.90;;;;;;5051033;28;20360;-64
2022/06/24 09:49:05;;;;;;;19.63;11.93;;;18.80;99.90;;;;;;5051057;28;20290;-64
2022/06/24 09:51:32;;;;;;;19.80;13.17;;;18.80;99.90;;;;;;5051721;28;20209;-63
2022/06/24 09:53:59;;;;;;;17.43;11.20;;;18.80;99.90;;;;;;5051505;28;20213;-62
2022/06/24 09:56:27;;;;;;;18.67;11.93;;;18.90;99.90;;;;;;5050354;28;20221;-64
2022/06/24 10:01:42;;;;;;;12.37;9.43;;;18.80;99.90;;;;;;5050576;28;20287;-64
2022/06/24 10:04:13;;;;;;;15.00;9.43;;;18.80;99.90;;;;;;5051372;28;20875;-64
2022/06/24 10:06:43;;;;;;;13.47;8.20;;;18.80;99.90;;;;;;5050054;28;20316;-64
2022/06/24 10:09:10;;;;;;;11.77;8.80;;;18.90;99.90;;;;;;5051454;28;20210;-63
2022/06/24 10:11:41;;;;;;;13.63;9.10;;;19.00;99.90;;;;;;5051122;28;20691;-65
2022/06/24 10:14:12;;;;;;;13.80;9.37;;;19.00;99.90;;;;;;5052702;28;20826;-64
2022/06/24 10:16:41;;;;;;;13.73;8.50;;;19.20;99.90;;;;;;5050465;28;20310;-64
2022/06/24 10:19:08;;;;;;;10.30;7.57;;;19.40;99.90;;;;;;5051687;28;20214;-66
2022/06/24 10:21:36;;;;;;;8.27;6.53;;;19.50;99.90;;;;;;5052002;28;20304;-66
2022/06/24 10:24:12;;;;;;;8.93;6.30;;;19.60;99.90;;;;;;5051789;28;20209;-64
2022/06/24 10:26:41;;;;;;;7.03;6.17;;;19.70;99.90;;;;;;5050233;28;20904;-63
2022/06/24 10:29:28;;;;;;;7.03;5.80;;;19.90;99.90;;;;;;5051178;28;20260;-65
2022/06/24 10:32:08;;;;;;;7.00;5.67;;;20.00;99.90;;;;;;5050940;28;20274;-65
2022/06/24 10:34:45;;;;;;;6.13;5.10;;;20.30;99.90;;;;;;5051119;28;20241;-65
2022/06/24 10:37:27;;;;;;;6.97;4.67;;;20.60;99.90;;;;;;5050023;28;20330;-67
2022/06/24 10:39:55;;;;;;;4.40;3.80;;;20.80;99.90;;;;;;5051520;28;20201;-66
2022/06/24 10:42:23;;;;;;;5.63;3.80;;;21.10;99.90;;;;;;5051110;28;20213;-64
2022/06/24 10:44:56;;;;;;;4.10;3.57;;;21.30;99.90;;;;;;5050811;28;20209;-66
2022/06/24 10:47:28;;;;;;;5.30;4.17;;;21.50;99.90;;;;;;5050044;28;20238;-67
2022/06/24 10:50:13;;;;;;;6.33;3.77;;;21.70;99.90;;;;;;5050819;28;20289;-67
2022/06/24 10:52:43;;;;;;;5.77;3.67;;;21.80;99.90;;;;;;5050989;28;20706;-65
2022/06/24 10:55:32;;;;;;;3.93;2.60;;;22.00;99.90;;;;;;5050588;28;20209;-65
2022/06/24 10:58:03;;;;;;;4.70;2.33;;;22.20;99.90;;;;;;5050644;28;20217;-67
2022/06/24 11:00:48;;;;;;;2.87;2.43;;;22.30;99.90;;;;;;5051620;28;20205;-68
2022/06/24 11:03:19;;;;;;;4.47;2.80;;;22.10;99.90;;;;;;5052246;28;20300;-66
2022/06/24 11:05:48;;;;;;;4.30;2.60;;;22.10;99.90;;;;;;5050816;28;20821;-67
2022/06/24 11:08:16;;;;;;;5.23;2.93;;;22.30;99.90;;;;;;5050539;28;20209;-68
2022/06/24 11:10:43;;;;;;;4.40;3.50;;;22.50;99.90;;;;;;5050789;28;20205;-68
2022/06/24 11:13:10;;;;;;;4.80;3.20;;;22.20;99.90;;;;;;5053077;28;20283;-67
2022/06/24 11:15:40;;;;;;;5.70;4.20;;;22.40;99.90;;;;;;5039705;28;20211;-67
2022/06/24 11:18:08;;;;;;;8.60;5.90;;;22.50;99.90;;;;;;5034933;28;20716;-65
2022/06/24 11:20:40;;;;;;;5.77;5.00;;;22.70;99.90;;;;;;5034062;28;20221;-64
2022/06/24 11:23:07;;;;;;;7.47;6.23;;;22.80;99.90;;;;;;5034309;28;20756;-66
2022/06/24 11:25:35;;;;;;;8.07;6.57;;;22.80;99.90;;;;;;5033649;28;20217;-64
2022/06/24 11:28:02;;;;;;;9.20;7.20;;;22.70;99.90;;;;;;5033729;28;20731;-65
2022/06/24 11:30:29;;;;;;;8.83;7.73;;;22.80;99.90;;;;;;5033993;28;20665;-65
2022/06/24 11:32:59;;;;;;;7.70;6.83;;;22.90;99.90;;;;;;5033741;28;20229;-65
2022/06/24 11:35:26;;;;;;;9.57;8.17;;;22.90;99.90;;;;;;5034205;28;20210;-63
2022/06/24 11:37:56;;;;;;;10.33;9.23;;;22.80;99.90;;;;;;5033055;28;20210;-65
2022/06/24 11:40:24;;;;;;;11.37;9.87;;;22.90;99.90;;;;;;5034046;28;20673;-64
2022/06/24 11:42:52;;;;;;;9.50;8.50;;;23.00;99.90;;;;;;5033495;28;20210;-65
2022/06/24 11:45:31;;;;;;;9.57;8.23;;;23.30;99.90;;;;;;5034650;28;20202;-64
2022/06/24 11:47:59;;;;;;;13.03;9.37;;;23.30;99.90;;;;;;5033934;28;20638;-65
2022/06/24 11:50:26;;;;;;;12.27;8.33;;;23.20;99.90;;;;;;5034135;28;20583;-65
2022/06/24 11:52:53;;;;;;;9.07;7.43;;;23.30;99.90;;;;;;5033911;28;20226;-66
2022/06/24 11:55:24;;;;;;;10.80;7.53;;;23.60;98.40;;;;;;5033513;28;20665;-66
2022/06/24 11:57:54;;;;;;;11.40;7.70;;;23.90;97.60;;;;;;5033409;28;20234;-67
2022/06/24 12:00:21;;;;;;;7.73;6.50;;;23.90;21.10;;;;;;5033610;28;20226;-65
2022/06/24 12:02:48;;;;;;;6.63;5.50;;;23.80;1.00;;;;;;5033557;28;20260;-66
2022/06/24 12:05:17;;;;;;;6.00;4.40;;;23.80;1.00;;;;;;5033844;28;20214;-67
2022/06/24 12:07:44;;;;;;;4.50;4.00;;;23.80;1.00;;;;;;5032869;28;20280;-65
2022/06/24 12:10:12;;;;;;;6.47;3.97;;;23.60;1.00;;;;;;5034153;28;20256;-67
2022/06/24 12:12:55;;;;;;;5.63;4.00;;;23.50;99.90;;;;;;5033435;28;20226;-68
2022/06/24 12:15:23;;;;;;;5.03;3.70;;;23.80;1.00;;;;;;5033566;28;20210;-68
2022/06/24 12:17:52;;;;;;;4.33;3.80;;;23.80;99.90;;;;;;5032960;28;20260;-65
2022/06/24 12:20:24;;;;;;;4.90;3.70;;;23.90;99.90;;;;;;5033217;28;20213;-64
2022/06/24 12:23:19;;;;;;;5.17;4.27;;;24.00;1.00;;;;;;5033404;28;20202;-64
2022/06/24 12:25:47;;;;;;;8.33;4.10;;;23.90;99.90;;;;;;4997475;28;20230;-65
2022/06/24 12:28:19;;;;;;;4.30;3.50;;;24.00;1.00;;;;;;5033128;28;20606;-64
2022/06/24 12:30:57;;;;;;;4.93;3.37;;;24.20;99.90;;;;;;5033321;28;20207;-65
2022/06/24 12:33:25;;;;;;;3.30;3.00;;;24.20;43.60;;;;;;5033026;28;20696;-64
2022/06/24 12:36:12;;;;;;;4.17;3.63;;;24.10;99.90;;;;;;5032693;28;20314;-63
2022/06/24 12:38:41;;;;;;;5.20;4.17;;;24.10;1.00;;;;;;5033009;28;20206;-66
2022/06/24 12:41:09;;;;;;;5.43;3.40;;;24.10;1.00;;;;;;5033215;28;20217;-67
2022/06/24 12:43:36;;;;;;;4.00;3.43;;;24.40;1.00;;;;;;5032580;28;20621;-68
2022/06/24 12:46:06;;;;;;;3.83;3.10;;;24.50;99.90;;;;;;5032089;28;20226;-67
2022/06/24 12:51:25;;;;;;;3.23;2.93;;;24.40;1.00;;;;;;5033197;28;20292;-67
2022/06/24 12:53:54;;;;;;;4.87;3.07;;;24.30;99.90;;;;;;5033615;28;20635;-65
2022/06/24 12:56:21;;;;;;;4.70;3.10;;;24.30;1.00;;;;;;5031881;28;20230;-67
2022/06/24 12:58:49;;;;;;;3.70;2.70;;;24.60;1.00;;;;;;5032888;28;20210;-66
2022/06/24 13:01:16;;;;;;;4.10;2.90;;;24.90;99.90;;;;;;5032889;28;20210;-69